Time;durP1;ratioP1;P1;durP2;ratioP2;P2;SDS_P1;SDS_P2;PMS_P1;PMS_P2;Temp;Humidity;BMP_temperature;BMP_pressure;BME280_temperature;BME280_humidity;BME280_pressure;Samples;Min_cycle;Max_cycle;Signal;HPM_P1;HPM_P2
2023/11/05 05:31:19;;;;;;;0.10;0.10;;;11.40;86.30;;;;;;5544944;23;20042;-75
2023/11/05 05:33:45;;;;;;;0.10;0.10;;;11.30;85.80;;;;;;5006799;28;20363;-76
2023/11/05 05:36:12;;;;;;;0.10;0.10;;;11.30;85.90;;;;;;4999555;28;20065;-76
2023/11/05 05:38:38;;;;;;;0.10;0.10;;;11.30;85.80;;;;;;4997430;28;20056;-76
2023/11/05 05:41:03;;;;;;;0.10;0.10;;;11.20;86.00;;;;;;4989319;28;20030;-76
2023/11/05 05:43:29;;;;;;;0.10;0.10;;;11.20;86.10;;;;;;5016438;28;20025;-76
2023/11/05 05:45:55;;;;;;;0.10;0.10;;;11.20;86.10;;;;;;4981112;28;20037;-76
2023/11/05 05:48:20;;;;;;;0.10;0.10;;;11.20;86.00;;;;;;4978125;28;20026;-76
2023/11/05 05:50:46;;;;;;;0.10;0.10;;;11.20;86.10;;;;;;5016209;28;20030;-76
2023/11/05 05:53:11;;;;;;;0.10;0.10;;;11.20;85.80;;;;;;5011389;28;20026;-76
2023/11/05 05:55:41;;;;;;;0.10;0.10;;;11.20;86.10;;;;;;4977674;28;20046;-76
2023/11/05 05:58:06;;;;;;;0.10;0.10;;;11.20;85.80;;;;;;4977497;28;20027;-76
2023/11/05 06:00:32;;;;;;;0.10;0.10;;;11.20;85.80;;;;;;4960866;28;20038;-76
2023/11/05 06:02:58;;;;;;;0.10;0.10;;;11.20;85.80;;;;;;4988012;28;20034;-76
2023/11/05 06:05:23;;;;;;;0.10;0.10;;;11.20;85.80;;;;;;4984213;28;20041;-76
2023/11/05 06:07:49;;;;;;;0.10;0.10;;;11.10;85.60;;;;;;4977842;28;20031;-76
2023/11/05 06:10:15;;;;;;;0.10;0.10;;;11.10;85.70;;;;;;4960616;28;20049;-76
2023/11/05 06:12:40;;;;;;;0.10;0.10;;;11.10;85.60;;;;;;4980047;28;20425;-76
2023/11/05 06:15:07;;;;;;;0.10;0.10;;;11.00;85.50;;;;;;4981451;28;20106;-76
2023/11/05 06:17:32;;;;;;;0.10;0.10;;;11.00;85.70;;;;;;4993909;28;20049;-76
2023/11/05 06:19:58;;;;;;;0.10;0.10;;;11.00;85.60;;;;;;5000445;28;20034;-76
2023/11/05 06:22:24;;;;;;;0.10;0.10;;;10.90;85.60;;;;;;4999738;28;20509;-76
2023/11/05 06:24:49;;;;;;;0.10;0.10;;;10.90;85.50;;;;;;5000582;28;20026;-76
2023/11/05 06:27:15;;;;;;;0.10;0.10;;;10.90;85.50;;;;;;5000288;28;20065;-76
2023/11/05 06:29:41;;;;;;;0.10;0.10;;;10.90;85.60;;;;;;4990820;28;20035;-76
2023/11/05 06:32:06;;;;;;;0.10;0.10;;;10.90;85.50;;;;;;4980449;28;20057;-76
2023/11/05 06:34:32;;;;;;;0.10;0.10;;;10.90;85.30;;;;;;4980856;28;20082;-76
2023/11/05 06:37:02;;;;;;;0.10;0.10;;;10.90;85.30;;;;;;4981310;28;20035;-76
2023/11/05 06:39:28;;;;;;;0.10;0.10;;;10.80;85.40;;;;;;4980781;28;20027;-76
2023/11/05 06:41:55;;;;;;;0.10;0.10;;;10.80;85.30;;;;;;5017834;28;20060;-76
2023/11/05 06:44:20;;;;;;;0.10;0.10;;;10.80;85.30;;;;;;4993151;28;20062;-76
2023/11/05 06:46:46;;;;;;;0.10;0.10;;;10.80;85.50;;;;;;4981046;28;20089;-76
2023/11/05 06:49:12;;;;;;;0.10;0.10;;;10.80;85.30;;;;;;4979342;28;20034;-76
2023/11/05 06:51:37;;;;;;;0.10;0.10;;;10.80;85.30;;;;;;4979331;28;20106;-76
2023/11/05 06:54:03;;;;;;;0.10;0.10;;;10.80;85.50;;;;;;4997500;28;20084;-76
2023/11/05 06:56:29;;;;;;;0.10;0.10;;;10.80;85.40;;;;;;4999962;28;20022;-76
2023/11/05 06:58:54;;;;;;;0.10;0.10;;;10.80;85.40;;;;;;4999778;28;20053;-76
2023/11/05 07:01:20;;;;;;;0.10;0.10;;;10.80;85.30;;;;;;4998960;28;20134;-76
2023/11/05 07:03:46;;;;;;;0.10;0.10;;;10.70;85.10;;;;;;4996425;28;20037;-76
2023/11/05 07:06:15;;;;;;;0.10;0.10;;;10.70;85.30;;;;;;4998429;28;20026;-76
2023/11/05 07:08:42;;;;;;;0.10;0.10;;;10.80;85.30;;;;;;4999581;28;20030;-76
2023/11/05 07:11:09;;;;;;;0.10;0.10;;;10.80;85.20;;;;;;4989798;28;20042;-76
2023/11/05 07:13:35;;;;;;;0.10;0.10;;;10.80;85.00;;;;;;4984194;28;20600;-76
2023/11/05 07:16:01;;;;;;;0.10;0.10;;;10.80;84.90;;;;;;4999409;28;20031;-76
2023/11/05 07:18:27;;;;;;;0.20;0.20;;;10.80;85.10;;;;;;4979135;28;20019;-82
2023/11/05 07:20:52;;;;;;;0.10;0.10;;;10.80;85.10;;;;;;4978959;28;20465;-81
2023/11/05 07:23:18;;;;;;;0.10;0.10;;;10.80;84.90;;;;;;4979178;28;20023;-79
2023/11/05 07:25:44;;;;;;;0.10;0.10;;;10.90;84.80;;;;;;4962807;28;20118;-89
2023/11/05 07:28:10;;;;;;;0.10;0.10;;;10.80;84.70;;;;;;4962904;28;20027;-88
2023/11/05 07:30:36;;;;;;;0.10;0.10;;;10.90;84.90;;;;;;4961924;28;20055;-87
2023/11/05 07:33:05;;;;;;;0.13;0.13;;;10.90;84.60;;;;;;4962669;28;20054;-88
2023/11/05 07:35:31;;;;;;;0.10;0.10;;;10.90;84.70;;;;;;4984094;28;20026;-88
2023/11/05 07:37:57;;;;;;;0.10;0.10;;;10.90;84.70;;;;;;4979709;28;20034;-92
2023/11/05 07:40:23;;;;;;;0.10;0.10;;;10.90;84.80;;;;;;4974955;28;20125;-87
2023/11/05 07:42:49;;;;;;;0.10;0.10;;;10.90;84.60;;;;;;4978077;28;20489;-89
2023/11/05 07:45:15;;;;;;;0.10;0.10;;;10.90;84.70;;;;;;4994246;28;20484;-86
2023/11/05 07:47:41;;;;;;;0.10;0.10;;;11.00;84.60;;;;;;5004711;28;20018;-84
2023/11/05 07:50:08;;;;;;;0.10;0.10;;;11.00;84.20;;;;;;4995631;28;20022;-83
2023/11/05 07:52:34;;;;;;;0.10;0.10;;;11.10;84.30;;;;;;4989603;28;20018;-79
2023/11/05 07:55:02;;;;;;;0.10;0.10;;;11.10;84.20;;;;;;4995280;28;20034;-83
2023/11/05 07:57:28;;;;;;;0.10;0.10;;;11.20;84.30;;;;;;4988320;28;20097;-88
2023/11/05 07:59:54;;;;;;;0.10;0.10;;;11.20;84.20;;;;;;4972357;28;20065;-83
2023/11/05 08:02:20;;;;;;;0.10;0.10;;;11.20;84.00;;;;;;4989184;28;20045;-81
2023/11/05 08:04:45;;;;;;;0.10;0.10;;;11.20;84.00;;;;;;4987321;28;20034;-81
2023/11/05 08:07:11;;;;;;;0.10;0.10;;;11.20;83.90;;;;;;4981308;28;20026;-83
2023/11/05 08:09:36;;;;;;;0.10;0.10;;;11.20;83.50;;;;;;4992897;28;20493;-89
2023/11/05 08:12:02;;;;;;;0.10;0.10;;;11.30;83.80;;;;;;4997143;28;20026;-79
2023/11/05 08:14:28;;;;;;;0.10;0.10;;;11.40;83.90;;;;;;4981815;28;20038;-80
2023/11/05 08:16:53;;;;;;;0.10;0.10;;;11.50;83.70;;;;;;4993551;28;20035;-79
2023/11/05 08:19:19;;;;;;;0.10;0.10;;;11.40;83.70;;;;;;4988687;28;20038;-83
2023/11/05 08:21:45;;;;;;;0.10;0.10;;;11.50;83.50;;;;;;4974468;28;20477;-84
2023/11/05 08:24:11;;;;;;;0.10;0.10;;;11.40;83.40;;;;;;4993596;28;20035;-84
2023/11/05 08:26:37;;;;;;;0.10;0.10;;;11.40;83.40;;;;;;4971863;28;20480;-80
2023/11/05 08:29:03;;;;;;;0.10;0.10;;;11.50;83.50;;;;;;4979502;28;20096;-81
2023/11/05 08:31:29;;;;;;;0.10;0.10;;;11.50;83.50;;;;;;4979259;28;20046;-78
2023/11/05 08:33:55;;;;;;;0.10;0.10;;;11.60;83.30;;;;;;4996197;28;20109;-79
2023/11/05 08:36:21;;;;;;;0.10;0.10;;;11.60;83.30;;;;;;4969457;28;20029;-80
2023/11/05 08:38:46;;;;;;;0.10;0.10;;;11.70;83.20;;;;;;4988243;28;20081;-80
2023/11/05 08:41:12;;;;;;;0.10;0.10;;;11.70;82.90;;;;;;4990359;28;20030;-82
2023/11/05 08:43:37;;;;;;;0.10;0.10;;;11.70;82.50;;;;;;5001541;28;20153;-83
2023/11/05 08:46:03;;;;;;;0.10;0.10;;;11.70;82.70;;;;;;4976185;28;20026;-82
2023/11/05 08:48:29;;;;;;;0.10;0.10;;;11.80;82.80;;;;;;4967695;28;20088;-80
2023/11/05 08:50:55;;;;;;;0.10;0.10;;;11.80;82.90;;;;;;4979682;28;20119;-78
2023/11/05 08:53:23;;;;;;;0.10;0.10;;;11.80;82.70;;;;;;4989286;28;20035;-83
2023/11/05 08:55:48;;;;;;;0.10;0.10;;;11.90;82.20;;;;;;4991159;28;20117;-79
2023/11/05 08:58:17;;;;;;;0.10;0.10;;;11.90;82.20;;;;;;4986309;28;20065;-79
2023/11/05 09:00:43;;;;;;;0.10;0.10;;;12.00;82.50;;;;;;4990243;28;20086;-79
2023/11/05 09:03:11;;;;;;;0.10;0.10;;;12.00;81.70;;;;;;4974762;28;20465;-79
2023/11/05 09:05:38;;;;;;;0.10;0.10;;;12.10;82.10;;;;;;4989914;28;20105;-80
2023/11/05 09:08:04;;;;;;;0.10;0.10;;;12.20;81.70;;;;;;4970835;28;20026;-79
2023/11/05 09:10:30;;;;;;;0.10;0.10;;;12.20;81.40;;;;;;4972536;28;20031;-78
2023/11/05 09:12:59;;;;;;;0.10;0.10;;;12.30;81.10;;;;;;4971397;28;20030;-79
2023/11/05 09:15:26;;;;;;;0.10;0.10;;;12.30;80.60;;;;;;4980021;28;20026;-77
2023/11/05 09:17:52;;;;;;;0.10;0.10;;;12.50;80.70;;;;;;4975182;28;20082;-77
2023/11/05 09:20:18;;;;;;;0.10;0.10;;;12.60;80.80;;;;;;4981937;28;20576;-78
2023/11/05 09:22:44;;;;;;;0.10;0.10;;;12.80;80.00;;;;;;4967488;28;20087;-83
2023/11/05 09:25:10;;;;;;;0.10;0.10;;;13.10;79.10;;;;;;4971093;28;20118;-80
2023/11/05 09:27:39;;;;;;;30.85;28.92;;;13.30;78.90;;;;;;4988303;28;20038;-78
2023/11/05 09:30:25;;;;;;;9.10;8.80;;;13.30;77.70;;;;;;4989005;28;20018;-82
2023/11/05 09:32:50;;;;;;;6.85;6.60;;;13.30;78.10;;;;;;4984041;28;20047;-79
2023/11/05 09:35:17;;;;;;;0.10;0.10;;;13.20;78.50;;;;;;4978462;28;20027;-79
2023/11/05 09:37:44;;;;;;;0.10;0.10;;;13.20;78.80;;;;;;4977134;28;20463;-79
2023/11/05 09:40:19;;;;;;;0.05;0.05;;;13.20;78.70;;;;;;4968707;28;20559;-78
2023/11/05 09:43:09;;;;;;;0.10;0.10;;;13.20;77.90;;;;;;4973438;28;20492;-80
2023/11/05 09:45:36;;;;;;;0.10;0.10;;;13.20;78.20;;;;;;4993583;28;20030;-81
2023/11/05 09:48:07;;;;;;;0.10;0.10;;;13.30;78.70;;;;;;4972009;28;20438;-80
2023/11/05 09:50:34;;;;;;;0.10;0.10;;;13.30;78.10;;;;;;4976844;28;20138;-81
2023/11/05 09:53:07;;;;;;;0.10;0.10;;;13.30;78.20;;;;;;4981041;28;20027;-82
2023/11/05 09:55:33;;;;;;;0.10;0.10;;;13.20;77.80;;;;;;4989638;28;20031;-82
2023/11/05 09:58:00;;;;;;;0.63;0.10;;;13.20;77.80;;;;;;4966840;28;20559;-82
2023/11/05 10:00:27;;;;;;;0.10;0.10;;;13.20;78.20;;;;;;4973291;28;20034;-82
2023/11/05 10:02:57;;;;;;;0.10;0.10;;;13.30;78.50;;;;;;4974983;28;20050;-83
2023/11/05 10:05:29;;;;;;;0.10;0.10;;;13.40;78.30;;;;;;4990276;28;20507;-83
2023/11/05 10:07:55;;;;;;;0.10;0.10;;;13.40;78.20;;;;;;4968833;28;20023;-81
2023/11/05 10:10:21;;;;;;;0.10;0.10;;;13.50;77.80;;;;;;4990749;28;20030;-83
2023/11/05 10:12:48;;;;;;;0.10;0.10;;;13.50;78.20;;;;;;4972520;28;20804;-81
2023/11/05 10:15:14;;;;;;;0.10;0.10;;;13.50;77.60;;;;;;4991447;28;20038;-83
2023/11/05 10:17:57;;;;;;;0.10;0.10;;;13.50;77.80;;;;;;4991479;28;20022;-86
2023/11/05 10:20:25;;;;;;;0.10;0.10;;;13.60;77.90;;;;;;4972943;28;20058;-77
2023/11/05 10:23:05;;;;;;;0.10;0.10;;;13.70;77.80;;;;;;4972554;28;20040;-78
2023/11/05 10:25:32;;;;;;;0.10;0.10;;;13.70;77.60;;;;;;4975034;28;20022;-81
2023/11/05 10:27:59;;;;;;;0.10;0.10;;;13.80;75.90;;;;;;4982036;28;20031;-78
2023/11/05 10:30:26;;;;;;;0.10;0.10;;;13.80;76.60;;;;;;4985313;28;20057;-80
2023/11/05 10:32:53;;;;;;;0.10;0.10;;;13.80;76.10;;;;;;4965510;28;20114;-78
2023/11/05 10:35:27;;;;;;;0.10;0.10;;;13.90;76.00;;;;;;4991670;28;20034;-78
2023/11/05 10:37:54;;;;;;;0.10;0.10;;;13.90;76.10;;;;;;4957590;28;20049;-78
2023/11/05 10:40:19;;;;;;;0.10;0.10;;;14.00;76.40;;;;;;4988726;28;20547;-78
2023/11/05 10:42:49;;;;;;;0.10;0.10;;;14.00;76.20;;;;;;4973519;28;20034;-78
2023/11/05 10:45:17;;;;;;;0.10;0.10;;;14.00;75.30;;;;;;4989935;28;20481;-82
2023/11/05 10:47:45;;;;;;;0.10;0.10;;;14.00;75.00;;;;;;4990967;28;20101;-78
2023/11/05 10:50:32;;;;;;;0.10;0.10;;;14.00;75.30;;;;;;4970087;28;20383;-80
2023/11/05 10:52:59;;;;;;;0.10;0.10;;;14.10;74.60;;;;;;4971850;28;20050;-79
2023/11/05 10:55:33;;;;;;;0.10;0.10;;;14.10;74.50;;;;;;4973096;28;20127;-79
2023/11/05 10:57:59;;;;;;;0.10;0.10;;;14.20;74.60;;;;;;4970915;28;20085;-79
2023/11/05 11:00:25;;;;;;;0.10;0.10;;;14.30;74.70;;;;;;4990065;28;20184;-79
2023/11/05 11:02:52;;;;;;;0.10;0.10;;;14.30;74.40;;;;;;4988849;28;20035;-79
2023/11/05 11:05:20;;;;;;;0.10;0.10;;;14.30;73.50;;;;;;4989254;28;20031;-79
2023/11/05 11:07:46;;;;;;;0.10;0.10;;;14.40;74.30;;;;;;4991523;28;20046;-80
2023/11/05 11:10:21;;;;;;;0.10;0.10;;;14.50;73.30;;;;;;4989482;28;20026;-79
2023/11/05 11:12:46;;;;;;;0.10;0.10;;;14.70;73.60;;;;;;4987278;28;20026;-80
2023/11/05 11:15:44;;;;;;;0.10;0.10;;;14.70;73.00;;;;;;4990390;28;20698;-80
2023/11/05 11:18:20;;;;;;;0.10;0.10;;;14.80;73.50;;;;;;4978133;28;20504;-80
2023/11/05 11:20:52;;;;;;;0.10;0.10;;;14.80;72.90;;;;;;4987779;28;20042;-79
2023/11/05 11:23:20;;;;;;;0.10;0.10;;;14.90;72.20;;;;;;4993267;28;20030;-79
2023/11/05 11:26:01;;;;;;;0.10;0.10;;;15.00;71.80;;;;;;4981889;28;20030;-79
2023/11/05 11:28:28;;;;;;;0.10;0.10;;;15.00;71.40;;;;;;4977255;28;20035;-78
2023/11/05 11:30:55;;;;;;;0.10;0.10;;;15.10;69.70;;;;;;4972677;28;20039;-83
2023/11/05 11:33:22;;;;;;;0.10;0.10;;;15.20;70.10;;;;;;4968260;28;20584;-84
2023/11/05 11:36:07;;;;;;;0.10;0.10;;;15.30;69.80;;;;;;4973377;28;20039;-85
2023/11/05 11:38:33;;;;;;;0.10;0.10;;;15.40;69.10;;;;;;4968479;28;20027;-78
2023/11/05 11:40:59;;;;;;;0.00;0.00;;;15.30;69.30;;;;;;4970586;28;20026;-79
2023/11/05 11:43:28;;;;;;;0.10;0.10;;;15.30;68.70;;;;;;4974271;28;20027;-77
2023/11/05 11:45:54;;;;;;;0.08;0.08;;;15.30;69.50;;;;;;4970554;28;20086;-83
2023/11/05 11:48:26;;;;;;;0.10;0.10;;;15.30;68.80;;;;;;4978738;28;20086;-83
2023/11/05 11:51:00;;;;;;;0.10;0.10;;;15.30;69.50;;;;;;4960280;28;20410;-82
2023/11/05 11:53:38;;;;;;;0.10;0.10;;;15.50;69.40;;;;;;4959112;29;20034;-87
2023/11/05 11:56:05;;;;;;;0.10;0.10;;;15.60;68.50;;;;;;4961685;28;20023;-87
2023/11/05 11:58:36;;;;;;;0.10;0.10;;;15.60;68.40;;;;;;4976999;28;20027;-81
2023/11/05 12:01:02;;;;;;;0.10;0.10;;;15.50;68.10;;;;;;4979257;28;20027;-82
2023/11/05 12:03:30;;;;;;;0.10;0.10;;;15.50;68.10;;;;;;4961001;28;20438;-81
2023/11/05 12:05:56;;;;;;;0.03;0.03;;;15.60;67.20;;;;;;4970066;28;20023;-82
2023/11/05 12:08:46;;;;;;;0.10;0.10;;;15.50;67.50;;;;;;4974414;28;20058;-82
2023/11/05 12:11:14;;;;;;;0.10;0.10;;;15.50;67.90;;;;;;4978328;28;20023;-83
2023/11/05 12:13:42;;;;;;;0.10;0.10;;;15.30;67.60;;;;;;4978792;28;20501;-86
2023/11/05 12:16:09;;;;;;;0.00;0.00;;;15.30;66.90;;;;;;4967513;28;20019;-82
2023/11/05 12:18:36;;;;;;;0.10;0.10;;;15.20;67.50;;;;;;4975526;28;20038;-83
2023/11/05 12:21:02;;;;;;;0.10;0.10;;;15.30;67.50;;;;;;4977737;28;20481;-88
2023/11/05 12:23:31;;;;;;;0.10;0.10;;;15.20;67.90;;;;;;4976810;28;20058;-83
2023/11/05 12:25:59;;;;;;;0.10;0.10;;;15.10;68.00;;;;;;4969263;28;20106;-87
2023/11/05 12:28:27;;;;;;;0.10;0.10;;;15.20;68.30;;;;;;4964905;28;20030;-78
2023/11/05 12:30:54;;;;;;;0.00;0.00;;;15.30;68.30;;;;;;4973024;28;20053;-79
2023/11/05 12:33:23;;;;;;;0.10;0.10;;;15.50;68.20;;;;;;4989342;28;20026;-80
2023/11/05 12:35:52;;;;;;;0.10;0.10;;;15.60;67.00;;;;;;4988591;28;20089;-80
2023/11/05 12:38:22;;;;;;;0.10;0.10;;;15.80;65.50;;;;;;4979118;28;20021;-76
2023/11/05 12:40:48;;;;;;;0.10;0.10;;;15.80;66.60;;;;;;4986904;28;20427;-76
2023/11/05 12:43:13;;;;;;;0.10;0.10;;;15.80;65.50;;;;;;4984443;28;20108;-79
2023/11/05 12:45:39;;;;;;;0.10;0.10;;;16.00;65.50;;;;;;5004566;28;20054;-79
2023/11/05 12:48:06;;;;;;;0.00;0.00;;;16.10;66.40;;;;;;4994162;28;20030;-79
2023/11/05 12:50:32;;;;;;;0.10;0.10;;;16.10;65.90;;;;;;4983336;28;20036;-80
2023/11/05 12:52:58;;;;;;;0.00;0.00;;;15.90;66.00;;;;;;4983523;28;20018;-79
2023/11/05 12:55:23;;;;;;;0.10;0.10;;;15.70;66.40;;;;;;5001394;28;20018;-78
2023/11/05 12:57:49;;;;;;;0.10;0.10;;;15.70;66.00;;;;;;5002393;28;20786;-78
2023/11/05 13:00:15;;;;;;;0.10;0.10;;;15.70;65.50;;;;;;5002299;28;20030;-79
2023/11/05 13:02:41;;;;;;;0.10;0.10;;;15.70;65.30;;;;;;4973438;28;20023;-79
2023/11/05 13:05:07;;;;;;;0.10;0.10;;;15.80;64.40;;;;;;4986228;28;21107;-78
2023/11/05 13:07:36;;;;;;;0.10;0.10;;;15.70;65.00;;;;;;5003232;28;20076;-79
2023/11/05 13:10:05;;;;;;;0.10;0.10;;;15.60;64.80;;;;;;4999402;28;20400;-77
2023/11/05 13:12:33;;;;;;;0.10;0.10;;;15.40;65.10;;;;;;4985157;28;20030;-81
2023/11/05 13:15:00;;;;;;;0.00;0.00;;;15.40;64.70;;;;;;4998971;28;20752;-80
2023/11/05 13:17:28;;;;;;;0.10;0.10;;;15.30;65.80;;;;;;4970828;28;20453;-80
2023/11/05 13:19:54;;;;;;;0.10;0.10;;;15.30;65.90;;;;;;4987000;28;20050;-82
2023/11/05 13:22:19;;;;;;;0.00;0.00;;;15.40;66.70;;;;;;4988643;28;20031;-80
2023/11/05 13:24:45;;;;;;;0.10;0.10;;;15.30;66.80;;;;;;4970288;28;20035;-80
2023/11/05 13:27:10;;;;;;;0.10;0.10;;;15.40;66.40;;;;;;4987951;28;20030;-80
2023/11/05 13:29:36;;;;;;;0.10;0.10;;;15.40;66.10;;;;;;4984984;28;20053;-79
2023/11/05 13:32:04;;;;;;;0.10;0.10;;;15.60;66.80;;;;;;4978988;28;20069;-78
2023/11/05 13:34:30;;;;;;;0.10;0.10;;;15.60;65.50;;;;;;4976794;28;20069;-79
2023/11/05 13:36:56;;;;;;;0.10;0.10;;;15.80;66.10;;;;;;4957051;28;20065;-78
2023/11/05 13:39:22;;;;;;;0.10;0.10;;;15.90;65.20;;;;;;4959131;28;20442;-78
2023/11/05 13:41:47;;;;;;;0.10;0.10;;;15.80;64.70;;;;;;4974529;28;20015;-81
2023/11/05 13:44:13;;;;;;;0.10;0.10;;;15.80;65.20;;;;;;4967345;28;20461;-80
2023/11/05 13:46:38;;;;;;;0.10;0.10;;;15.80;65.20;;;;;;4969323;28;20024;-82
2023/11/05 13:49:04;;;;;;;0.10;0.10;;;15.90;65.50;;;;;;4964988;28;20027;-85
2023/11/05 13:51:30;;;;;;;0.03;0.03;;;16.10;65.00;;;;;;4964764;28;20074;-81
2023/11/05 13:53:57;;;;;;;0.10;0.10;;;16.20;64.80;;;;;;4971122;28;20030;-82
2023/11/05 13:56:23;;;;;;;0.10;0.10;;;16.00;65.40;;;;;;4965934;28;20087;-84
2023/11/05 13:58:49;;;;;;;0.10;0.10;;;15.70;65.80;;;;;;4958374;28;20445;-80
2023/11/05 14:01:18;;;;;;;0.10;0.10;;;15.50;65.70;;;;;;4970318;28;20033;-81
2023/11/05 14:03:44;;;;;;;0.10;0.10;;;15.20;66.40;;;;;;4955501;28;20491;-80
2023/11/05 14:06:10;;;;;;;0.10;0.10;;;15.10;66.90;;;;;;4956614;28;20023;-79
2023/11/05 14:08:35;;;;;;;0.10;0.10;;;14.90;67.20;;;;;;4973599;28;20031;-82
2023/11/05 14:11:01;;;;;;;0.10;0.10;;;15.10;67.70;;;;;;4976091;28;20078;-81
2023/11/05 14:13:27;;;;;;;0.10;0.10;;;15.20;67.40;;;;;;4976171;28;20035;-81
2023/11/05 14:15:52;;;;;;;0.10;0.10;;;15.40;67.70;;;;;;4976631;28;20090;-82
2023/11/05 14:18:18;;;;;;;0.00;0.00;;;15.50;67.90;;;;;;4971163;28;20027;-82
2023/11/05 14:20:44;;;;;;;0.10;0.10;;;15.30;68.00;;;;;;4959067;28;20019;-81
2023/11/05 14:23:12;;;;;;;0.10;0.10;;;15.40;68.00;;;;;;4974344;28;20034;-79
2023/11/05 14:25:39;;;;;;;0.10;0.10;;;15.40;68.00;;;;;;4977027;28;20022;-80
2023/11/05 14:28:05;;;;;;;0.10;0.10;;;15.50;67.70;;;;;;4957772;28;20038;-84
2023/11/05 14:30:31;;;;;;;0.10;0.10;;;15.60;67.70;;;;;;4971846;28;20038;-86
2023/11/05 14:32:57;;;;;;;0.10;0.10;;;15.50;67.40;;;;;;4976964;28;20041;-81
2023/11/05 14:35:22;;;;;;;0.00;0.00;;;15.40;66.90;;;;;;4989459;28;20023;-81
2023/11/05 14:37:48;;;;;;;0.10;0.10;;;15.30;67.40;;;;;;4990726;28;20026;-81
2023/11/05 14:40:14;;;;;;;0.08;0.08;;;15.20;67.60;;;;;;4991067;28;20106;-85
2023/11/05 14:42:39;;;;;;;0.03;0.03;;;15.00;68.20;;;;;;4990962;28;20065;-79
2023/11/05 14:45:08;;;;;;;0.00;0.00;;;15.00;68.80;;;;;;4991213;28;20034;-81
2023/11/05 14:47:34;;;;;;;0.10;0.10;;;14.90;69.80;;;;;;4975951;28;20026;-82
2023/11/05 14:50:00;;;;;;;0.10;0.10;;;14.80;70.30;;;;;;4975186;28;20073;-81
2023/11/05 14:52:25;;;;;;;0.10;0.10;;;14.70;70.50;;;;;;4974218;28;20030;-79
2023/11/05 14:54:52;;;;;;;0.10;0.10;;;14.60;70.50;;;;;;4989358;28;20023;-79
2023/11/05 14:57:18;;;;;;;0.00;0.00;;;14.50;70.80;;;;;;4996662;28;20030;-78
2023/11/05 14:59:43;;;;;;;0.10;0.10;;;14.40;71.50;;;;;;4990012;28;20023;-79
2023/11/05 15:02:09;;;;;;;0.00;0.00;;;14.40;72.00;;;;;;4970649;28;20042;-78
2023/11/05 15:04:37;;;;;;;0.05;0.05;;;14.30;72.10;;;;;;4988275;28;20023;-80
2023/11/05 15:07:03;;;;;;;0.05;0.05;;;14.30;72.70;;;;;;4988208;28;20019;-80
2023/11/05 15:09:29;;;;;;;0.00;0.00;;;14.30;73.60;;;;;;4990457;28;20054;-80
2023/11/05 15:11:55;;;;;;;0.10;0.10;;;14.20;74.60;;;;;;4987541;28;20019;-82
2023/11/05 15:14:22;;;;;;;0.10;0.10;;;14.10;74.70;;;;;;4986984;28;20025;-82
2023/11/05 15:16:48;;;;;;;0.10;0.10;;;14.20;74.90;;;;;;4971611;28;20045;-82
2023/11/05 15:19:13;;;;;;;0.10;0.10;;;14.10;74.80;;;;;;4986377;28;20034;-80
2023/11/05 15:21:44;;;;;;;0.10;0.10;;;14.10;74.80;;;;;;4987713;28;20030;-82
2023/11/05 15:24:10;;;;;;;0.10;0.10;;;14.20;74.60;;;;;;4988987;28;20030;-80
2023/11/05 15:26:36;;;;;;;0.00;0.00;;;14.20;73.20;;;;;;4972777;28;20698;-80
2023/11/05 15:29:02;;;;;;;0.03;0.03;;;14.30;73.30;;;;;;4981218;28;20420;-83
2023/11/05 15:31:28;;;;;;;0.10;0.10;;;14.30;71.50;;;;;;4977861;28;20050;-84
2023/11/05 15:34:01;;;;;;;0.10;0.10;;;14.40;71.90;;;;;;4981598;28;20015;-79
2023/11/05 15:36:28;;;;;;;0.00;0.00;;;14.40;71.20;;;;;;4987239;28;20050;-76
2023/11/05 15:38:53;;;;;;;0.10;0.10;;;14.40;70.80;;;;;;4981482;28;20504;-76
2023/11/05 15:41:19;;;;;;;0.10;0.10;;;14.30;70.50;;;;;;4990667;28;20124;-75
2023/11/05 15:43:45;;;;;;;0.00;0.00;;;14.30;70.20;;;;;;4994529;28;20032;-75
2023/11/05 15:46:11;;;;;;;0.10;0.10;;;14.30;70.10;;;;;;4988234;28;20039;-75
2023/11/05 15:48:38;;;;;;;0.00;0.00;;;14.20;69.90;;;;;;4988163;28;20030;-77
2023/11/05 15:51:05;;;;;;;0.00;0.00;;;14.20;69.70;;;;;;4991652;28;20049;-75
2023/11/05 15:53:31;;;;;;;0.00;0.00;;;14.20;69.70;;;;;;4992228;28;20481;-77
2023/11/05 15:55:59;;;;;;;0.10;0.10;;;14.20;70.20;;;;;;4990196;28;20081;-77
2023/11/05 15:58:27;;;;;;;0.10;0.10;;;14.20;70.00;;;;;;4995873;28;20018;-77
2023/11/05 16:00:53;;;;;;;0.03;0.03;;;14.10;71.00;;;;;;4997043;28;20053;-79
2023/11/05 16:03:19;;;;;;;0.10;0.10;;;14.00;71.10;;;;;;5016435;28;20053;-78
2023/11/05 16:05:45;;;;;;;0.03;0.03;;;13.90;71.30;;;;;;4993072;28;20072;-76
2023/11/05 16:08:11;;;;;;;0.00;0.00;;;13.80;71.90;;;;;;4979431;28;20110;-75
2023/11/05 16:10:37;;;;;;;0.00;0.00;;;13.90;72.50;;;;;;4976314;28;20022;-79
2023/11/05 16:13:02;;;;;;;0.10;0.10;;;13.80;72.20;;;;;;4985576;28;20108;-78
2023/11/05 16:15:28;;;;;;;0.00;0.00;;;13.70;71.70;;;;;;4971027;28;20030;-79
2023/11/05 16:17:54;;;;;;;0.00;0.00;;;13.70;72.50;;;;;;4989747;28;20408;-76
2023/11/05 16:20:20;;;;;;;0.10;0.10;;;13.70;72.10;;;;;;4988576;28;20027;-78
2023/11/05 16:22:45;;;;;;;0.00;0.00;;;13.60;71.90;;;;;;4989421;28;20656;-77
2023/11/05 16:25:11;;;;;;;0.10;0.10;;;13.60;72.00;;;;;;4985762;28;20080;-78
2023/11/05 16:27:38;;;;;;;0.03;0.03;;;13.50;72.30;;;;;;4966766;28;20037;-78
2023/11/05 16:30:05;;;;;;;0.10;0.10;;;13.50;72.70;;;;;;4972019;28;20027;-79
2023/11/05 16:32:31;;;;;;;0.10;0.10;;;13.50;72.40;;;;;;4985897;28;20521;-84
2023/11/05 16:34:57;;;;;;;0.10;0.10;;;13.30;72.30;;;;;;4994393;28;20018;-83
2023/11/05 16:37:23;;;;;;;0.10;0.10;;;13.30;72.60;;;;;;4972688;28;20029;-83
2023/11/05 16:39:49;;;;;;;0.08;0.08;;;13.30;72.50;;;;;;4972097;28;20165;-80
2023/11/05 16:42:25;;;;;;;0.20;0.10;;;13.10;70.70;;;;;;4985343;28;20054;-85
2023/11/05 16:44:50;;;;;;;0.10;0.10;;;13.20;70.90;;;;;;4969058;28;20051;-83
2023/11/05 16:47:16;;;;;;;0.00;0.00;;;13.20;71.10;;;;;;4984986;28;20070;-81
2023/11/05 16:49:42;;;;;;;0.00;0.00;;;13.10;70.60;;;;;;4981279;28;20030;-81
2023/11/05 16:52:07;;;;;;;0.03;0.03;;;13.10;71.00;;;;;;4972806;28;20030;-85
2023/11/05 16:54:34;;;;;;;0.10;0.10;;;13.00;70.60;;;;;;4975299;28;20019;-82
2023/11/05 16:57:00;;;;;;;0.00;0.00;;;13.00;71.00;;;;;;4982264;28;20663;-80
2023/11/05 16:59:29;;;;;;;0.10;0.10;;;13.00;70.80;;;;;;4989796;28;20023;-79
2023/11/05 17:01:55;;;;;;;0.00;0.00;;;12.90;71.30;;;;;;4980591;28;20030;-81
2023/11/05 17:04:22;;;;;;;0.05;0.05;;;12.90;71.30;;;;;;4994968;28;20134;-77
2023/11/05 17:06:47;;;;;;;0.10;0.10;;;12.90;71.20;;;;;;4979664;28;20034;-79
2023/11/05 17:09:14;;;;;;;0.10;0.10;;;12.90;71.50;;;;;;4987183;28;20402;-81
2023/11/05 17:11:49;;;;;;;0.10;0.10;;;12.80;71.70;;;;;;4986285;28;20030;-82
2023/11/05 17:14:15;;;;;;;0.00;0.00;;;12.80;72.00;;;;;;4971224;28;20019;-78
2023/11/05 17:16:49;;;;;;;0.10;0.10;;;12.80;71.30;;;;;;4986692;28;20037;-79
2023/11/05 17:19:18;;;;;;;0.10;0.10;;;12.80;71.90;;;;;;4985749;28;20517;-80
2023/11/05 17:21:44;;;;;;;0.10;0.10;;;12.70;71.90;;;;;;4984353;28;20034;-78
2023/11/05 17:24:11;;;;;;;0.10;0.10;;;12.70;72.10;;;;;;4985715;28;20873;-81
2023/11/05 17:26:47;;;;;;;0.10;0.10;;;12.70;72.30;;;;;;4966101;28;20054;-78
2023/11/05 17:29:15;;;;;;;0.10;0.10;;;12.70;72.50;;;;;;4968950;28;20038;-82
2023/11/05 17:31:48;;;;;;;0.00;0.00;;;12.60;72.60;;;;;;4960404;28;20047;-85
2023/11/05 17:34:13;;;;;;;0.00;0.00;;;12.70;73.10;;;;;;4956872;28;20511;-82
2023/11/05 17:36:39;;;;;;;0.10;0.10;;;12.60;73.00;;;;;;4957599;28;20050;-81
2023/11/05 17:39:05;;;;;;;0.05;0.05;;;12.50;72.90;;;;;;4968638;28;20031;-81
2023/11/05 17:41:30;;;;;;;0.10;0.10;;;12.50;73.40;;;;;;4953855;28;20034;-81
2023/11/05 17:43:56;;;;;;;0.10;0.10;;;12.50;73.40;;;;;;4974591;28;20027;-80
2023/11/05 17:46:28;;;;;;;0.05;0.05;;;12.40;73.70;;;;;;4972739;28;20615;-79
2023/11/05 17:48:54;;;;;;;0.00;0.00;;;12.40;73.60;;;;;;4956951;28;20046;-80
2023/11/05 17:51:20;;;;;;;0.10;0.10;;;12.40;73.90;;;;;;4964466;28;20050;-83
2023/11/05 17:53:46;;;;;;;0.10;0.10;;;12.40;73.90;;;;;;4959129;28;20079;-79
2023/11/05 17:56:11;;;;;;;0.10;0.10;;;12.40;74.30;;;;;;4957455;28;20039;-79
2023/11/05 17:58:37;;;;;;;0.10;0.10;;;12.40;74.20;;;;;;4974391;28;20065;-83
2023/11/05 18:01:03;;;;;;;0.10;0.10;;;12.30;74.50;;;;;;4953314;28;20062;-82
2023/11/05 18:03:29;;;;;;;0.00;0.00;;;12.30;74.50;;;;;;4967405;28;20101;-84
2023/11/05 18:05:58;;;;;;;0.10;0.10;;;12.20;74.90;;;;;;4948807;28;20776;-84
2023/11/05 18:08:24;;;;;;;0.10;0.10;;;12.20;75.30;;;;;;4952088;28;20047;-85
2023/11/05 18:10:50;;;;;;;0.10;0.10;;;12.20;75.20;;;;;;4968515;28;20034;-76
2023/11/05 18:13:15;;;;;;;0.00;0.00;;;12.20;75.50;;;;;;4975867;28;20033;-79
2023/11/05 18:15:45;;;;;;;0.10;0.10;;;12.20;75.60;;;;;;4978915;28;20031;-83
2023/11/05 18:18:10;;;;;;;0.10;0.10;;;12.10;75.70;;;;;;4977878;28;20501;-79